ENRS/RET METAR and TAF weather

Enter ICAO airport designator
Station Type Date Time Source
ENRS METAR 2021/09/23 18:50 UTC NOAA

ENRS 231850Z 24011KT 9999 FEW025 SCT032 09/05 Q0993


Station Type Date Time Source
ENRS Decoded METAR 2021/09/23 18:50 UTC NOAA

Rost Flyplass, Norway (ENRS) 67-31N 012-06E
Sep 23, 2021 - 02:50 PM EDT / 2021.09.23 1850 UTC
Wind: from the WSW (240 degrees) at 13 MPH (11 KT):0
Visibility: greater than 7 mile(s):0
Sky conditions: partly cloudy
Temperature: 48 F (9 C)
Dew Point: 41 F (5 C)
Relative Humidity: 75%
Pressure (altimeter): 29.32 in. Hg (0993 hPa)
ob: ENRS 231850Z 24011KT 9999 FEW025 SCT032 09/05 Q0993
cycle: 19

Station Type Date Time Source
ENRS TAF UTC NOAA

Error!

Example: see airport list